createdAt,value
2022-09-21T00:00:27.394Z,1027.0
2022-09-21T00:15:23.491Z,1027.0
2022-09-21T00:30:23.397Z,1027.0
2022-09-21T00:45:23.806Z,1027.0
2022-09-21T01:00:28.775Z,1027.0
2022-09-21T01:15:23.958Z,1027.0
2022-09-21T01:30:23.859Z,1027.0
2022-09-21T01:45:23.599Z,1027.0
2022-09-21T02:00:24.298Z,1028.0
2022-09-21T02:15:23.635Z,1028.0
2022-09-21T02:30:23.643Z,1028.0
2022-09-21T02:45:23.619Z,1027.7
2022-09-21T03:00:30.814Z,1027.3
2022-09-21T03:15:23.880Z,1028.0
2022-09-21T03:30:24.946Z,1028.0
2022-09-21T03:45:23.633Z,1028.0
2022-09-21T04:00:27.829Z,1028.0
2022-09-21T04:15:23.035Z,1028.0
2022-09-21T04:30:24.113Z,1028.0
2022-09-21T04:45:23.829Z,1028.0
2022-09-21T05:00:22.924Z,1028.0
2022-09-21T05:15:23.827Z,1028.0
2022-09-21T05:30:23.949Z,1028.0
2022-09-21T05:45:24.525Z,1028.0
2022-09-21T06:00:28.507Z,1028.0
2022-09-21T06:15:23.856Z,1028.0
2022-09-21T06:30:25.628Z,1028.0
2022-09-21T06:45:24.674Z,1028.0
2022-09-21T07:00:28.428Z,1028.0
2022-09-21T07:15:23.603Z,1028.0
2022-09-21T07:30:24.211Z,1028.0
2022-09-21T07:45:23.926Z,1028.0
2022-09-21T08:00:32.732Z,1028.0
2022-09-21T08:15:46.984Z,1028.0
2022-09-21T08:30:24.147Z,1028.0
2022-09-21T08:45:25.109Z,1028.0
2022-09-21T09:00:26.175Z,1028.0
2022-09-21T09:15:23.987Z,1028.0
2022-09-21T09:30:24.208Z,1028.0
2022-09-21T09:45:25.557Z,1027.5
2022-09-21T10:00:28.164Z,1027.3
2022-09-21T10:15:24.019Z,1027.0
2022-09-21T10:30:24.080Z,1027.0
2022-09-21T10:45:23.098Z,1027.0
2022-09-21T11:00:32.193Z,1027.0
2022-09-21T11:15:24.076Z,1027.0
2022-09-21T11:30:23.824Z,1027.0
2022-09-21T11:45:24.027Z,1027.0
2022-09-21T12:00:24.104Z,1027.0
2022-09-21T12:15:23.999Z,1026.0
2022-09-21T12:30:24.123Z,1026.0
2022-09-21T12:45:23.966Z,1026.0
2022-09-21T13:00:24.234Z,1026.0
2022-09-21T13:15:23.367Z,1026.0
2022-09-21T13:30:25.298Z,1026.0
2022-09-21T13:45:23.842Z,1026.0
2022-09-21T14:00:34.290Z,1026.0
2022-09-21T14:15:27.455Z,1026.0
2022-09-21T14:30:24.319Z,1026.0
2022-09-21T14:45:23.990Z,1026.0
2022-09-21T15:00:24.875Z,1025.5
2022-09-21T15:15:24.038Z,1025.0
2022-09-21T15:30:24.032Z,1025.0
2022-09-21T15:45:24.019Z,1025.0
2022-09-21T16:00:24.489Z,1025.0
2022-09-21T16:15:23.952Z,1025.0
2022-09-21T16:30:24.069Z,1025.3
2022-09-21T16:45:24.237Z,1026.0
2022-09-21T17:00:35.818Z,1026.0
2022-09-21T17:15:24.161Z,1026.0
2022-09-21T17:30:24.509Z,1026.0
2022-09-21T17:45:24.135Z,1026.0
2022-09-21T18:00:29.792Z,1026.0
2022-09-21T18:15:24.557Z,1026.0
2022-09-21T18:30:24.545Z,1026.0
2022-09-21T18:45:24.716Z,1026.3
2022-09-21T19:00:29.912Z,1027.0
2022-09-21T19:15:42.295Z,1027.0
2022-09-21T19:30:24.450Z,1027.0
2022-09-21T19:45:23.629Z,1027.0
2022-09-21T20:00:28.702Z,1027.0
2022-09-21T20:31:33.407Z,1027.0
2022-09-21T20:46:33.809Z,1027.0
2022-09-21T21:01:33.553Z,1027.0
2022-09-21T21:15:23.986Z,1027.0
2022-09-21T21:30:25.282Z,1027.0
2022-09-21T21:45:23.897Z,1027.0
2022-09-21T22:15:23.945Z,1027.0
2022-09-21T22:30:24.231Z,1027.0
2022-09-21T22:45:24.245Z,1027.0
2022-09-21T23:00:23.501Z,1027.0
2022-09-21T23:15:24.169Z,1027.0
2022-09-21T23:30:23.460Z,1027.0
2022-09-21T23:45:23.423Z,1027.0
